Main page
Satellite images 15-day forecastsClimateMarine weather Cyclones Lightning AirportsFAQ Newsletter About
Weather : Europe Africa North America South America Asia Australia-Oceania Others
Languages Contact

Warsaw, Poland

Fryderyk Chopin

latitude: 52-10N, longitude: 020-58E, elevation: 106 m


METAR: EPWA 242330Z 11010KT CAVOK M02/M08 Q1029 NOSIG
TAF: EPWA 242330Z 2500/2524 12010KT CAVOK BECMG 2505/2507 BKN012 BECMG 2508/2511 BKN020

Time: 01:50 (23:50 UTC)

Current weather observation

The report was made 20 minutes ago, at 23:30 UTC
Wind 10 kt from the East/Southeast
Temperature -2°C
Humidity 63%
Pressure 1029 hPa
Visibility 10 km or more
no clouds below 1500 m and no cumulonimbus

Change units

Forecast

The report was made 20 minutes ago, at 23:30 UTC
Forecast valid from 25 at 00 UTC to 25 at 24 UTC
Wind 10 kt from the East/Southeast
Visibility 10 km or more
no clouds below 1500 m and no cumulonimbus
Becoming
from 25 at 05 UTC to 25 at 07 UTC
Broken clouds at a height of 1200 ft
Becoming
from 25 at 08 UTC to 25 at 11 UTC
Broken clouds at a height of 2000 ft
The information on this site is subject to a disclaimer
Weather : Europe Africa North America South America Asia Australia-Oceania Others
Satellite images 15-day forecastsClimateMarine weather Cyclones Lightning AirportsFAQ Languages Contact Newsletter About